• Join FlightAware (Why Join?)
  • Login
  • US Flag 
09:46PM EDT


 

Airport Tracker/Info


-or-


 

Live Flight TrackerFlight Track Log ✈ RPA3392 ✈ 30-Aug-2013 ✈ KMSP - KDCA

Flight Track Log - Related Links

Times and Time Zones

All times are in EDT time to prevent confusion due to time zone crossing. See the RPA3392 flight status page for this flight to view local times or setup timezone preferences in your user account.

Time Position Orientation Groundspeed Altitude Reporting Facility
EDT Latitude Longitude Course Direction KTS MPH feet Rate Location/Type
05:56PM 44.9000 -93.2500 180° South 161 185 2,000  Level Minneapolis TRACON
05:57PM 44.8833 -93.3333 254° West 225 259 3,200 2,100 Climbing Minneapolis TRACON
05:58PM 44.8142 -93.3947 212° Southwest 257 296 6,600 2,280 Climbing Minneapolis Center
05:59PM 44.7104 -92.5986 152° Southeast  Level Estimated
06:00PM 44.6670 -92.4435 150° Southeast  Level Estimated
06:00PM 44.7503 -93.3486 153° Southeast 277 319 8,300  Level Minneapolis Center
06:01PM 44.6233 -92.2885 153° Southeast  Level Estimated
06:01PM 44.6800 -93.2894 149° Southeast 306 352 10,800  Level Minneapolis Center
06:02PM 44.5795 -92.1338 180° South  Level Estimated
06:02PM 44.6031 -93.2222 148° Southeast 332 382 12,500  Level Minneapolis Center
06:03PM 44.5058 -93.1369 148° Southeast 345 397 14,900 1,980 Climbing Minneapolis Center
06:04PM 44.4208 -93.0636 148° Southeast 358 412 16,700 1,740 Climbing Minneapolis Center
06:05PM 44.3333 -92.9886 148° Southeast 368 423 18,600 1,740 Climbing Minneapolis Center
06:06PM 44.2425 -92.9111 149° Southeast 381 438 20,300 1,800 Climbing Minneapolis Center
06:07PM 44.1469 -92.8472 154° Southeast 381 438 22,400 1,740 Climbing Minneapolis Center
06:08PM 44.0303 -92.7661 153° Southeast 389 448 24,000 1,500 Climbing Minneapolis Center
06:09PM 43.9269 -92.6967 154° Southeast 408 470 25,600 1,380 Climbing Minneapolis Center
06:10PM 43.8247 -92.6256 153° Southeast 411 473 26,900 1,140 Climbing Minneapolis Center
06:11PM 43.7097 -92.5850 166° South 426 490 28,000 960 Climbing Minneapolis Center
06:12PM 43.5900 -92.5667 174° South 432 497 28,900 1,200 Climbing Minneapolis Center
06:13PM 43.4461 -92.5425 173° South 439 505 30,500 1,320 Climbing Minneapolis Center
06:14PM 43.3258 -92.5231 173° South 440 506 31,700 960 Climbing Minneapolis Center
06:15PM 43.2042 -92.5053 174° South 444 511 32,600 1,020 Climbing Minneapolis Center
06:16PM 43.0853 -92.4856 173° South 439 505 33,900 1,140 Climbing Minneapolis Center
06:17PM 43.0133 -92.4728 173° South 434 499 34,500 660 Climbing Chicago Center
06:18PM 42.8717 -92.4500 173° South 428 493 35,000 240 Climbing Chicago Center
06:19PM 42.7575 -92.4303 173° South 427 491 35,000  Level Chicago Center
06:20PM 42.6408 -92.4119 173° South 428 493 35,000  Level Chicago Center
06:21PM 42.5358 -92.3453 155° Southeast 434 499 35,000  Level Chicago Center
06:22PM 42.4511 -92.1811 125° Southeast 450 518 35,000  Level Chicago Center
06:23PM 42.3861 -92.0422 122° Southeast 446 513 35,000  Level Chicago Center
06:24PM 42.3203 -91.9083 124° Southeast 438 504 35,000  Level Chicago Center
06:25PM 42.2542 -91.7703 123° Southeast 442 509 35,000  Level Chicago Center
06:26PM 42.1761 -91.6089 123° Southeast 439 505 35,000  Level Chicago Center
06:27PM 42.1089 -91.4725 124° Southeast 442 509 35,000  Level Chicago Center
06:28PM 42.0428 -91.3361 123° Southeast 442 509 35,000  Level Chicago Center
06:29PM 41.9756 -91.2006 124° Southeast 441 507 35,000  Level Chicago Center
06:30PM 41.9089 -91.0644 123° Southeast 442 509 35,000  Level Chicago Center
06:31PM 41.8283 -90.9011 123° Southeast 444 511 35,000  Level Chicago Center
06:32PM 41.7606 -90.7664 124° Southeast 442 509 35,000  Level Chicago Center
06:33PM 41.6850 -90.6156 124° Southeast 439 505 35,000  Level Chicago Center
06:34PM 41.6172 -90.4803 124° Southeast 439 505 35,000  Level Chicago Center
06:35PM 41.5472 -90.3447 125° Southeast 442 509 35,000  Level Chicago Center
06:36PM 41.4775 -90.2078 124° Southeast 443 510 35,000  Level Chicago Center
06:37PM 41.4086 -90.0703 124° Southeast 444 511 35,000  Level Chicago Center
06:38PM 41.3389 -89.9336 124° Southeast 444 511 35,000  Level Chicago Center
06:39PM 41.2678 -89.7975 125° Southeast 445 512 35,000  Level Chicago Center
06:40PM 41.1825 -89.6306 124° Southeast 452 520 35,000  Level Chicago Center
06:42PM 41.1614 -89.4697 100° East 443 510 35,000  Level Chicago Center
06:43PM 41.1633 -89.3050 89° East 442 509 35,000  Level Chicago Center
06:44PM 41.1653 -89.1292 89° East 438 504 35,000  Level Chicago Center
06:45PM 41.1672 -88.9686 89° East 438 504 35,000  Level Chicago Center
06:46PM 41.1669 -88.8064 90° East 441 507 35,000  Level Chicago Center
06:47PM 41.1678 -88.6439 90° East 444 511 35,000  Level Chicago Center
06:48PM 41.1681 -88.4817 90° East 444 511 35,000  Level Chicago Center
06:49PM 41.1692 -88.2928 89° East 435 501 35,000  Level Chicago Center
06:50PM 41.1689 -88.1372 90° East 430 495 35,000  Level Chicago Center
06:51PM 41.1689 -87.9781 90° East 438 504 35,000  Level Chicago Center
06:52PM 41.1689 -87.8186 90° East 441 507 35,000  Level Chicago Center
06:53PM 41.1686 -87.6281 90° East 437 503 35,000 -60 Level Chicago Center
06:54PM 41.1692 -87.4697 90° East 434 499 34,900 -480 Descending Chicago Center
06:55PM 41.1678 -87.3142 91° East 428 493 34,100 -780 Descending Chicago Center
06:56PM 41.1669 -87.1558 90° East 432 497 33,300 -540 Descending Chicago Center
06:57PM 41.1647 -86.9967 91° East 436 502 33,000 -180 Descending Chicago Center
06:58PM 41.1622 -86.8094 91° East 429 494 33,000  Level Chicago Center
06:59PM 41.1603 -86.6506 91° East 434 499 33,000  Level Chicago Center
07:00PM 41.1369 -86.4919 101° East 443 510 33,000  Level Chicago Center
07:01PM 41.1036 -86.3408 106° East 436 502 33,000  Level Chicago Center
07:02PM 41.0672 -86.1875 107° East 438 504 33,000  Level Chicago Center
07:03PM 41.0233 -86.0031 107° East 439 505 33,000  Level Chicago Center
07:04PM 40.9864 -85.8494 108° East 441 507 33,000  Level Chicago Center
07:05PM 40.9489 -85.6933 108° East 445 512 33,000  Level Chicago Center
07:06PM 40.9122 -85.5394 107° East 444 511 33,000  Level Chicago Center
07:07PM 40.8747 -85.3853 108° East 444 511 33,000  Level Chicago Center
07:08PM 40.8375 -85.2322 108° East 443 510 33,000  Level Chicago Center
07:09PM 40.7925 -85.0494 108° East 440 506 33,000  Level Chicago Center
07:10PM 40.7553 -84.8983 108° East 438 504 33,000  Level Chicago Center
07:11PM 40.7175 -84.7483 108° East 434 499 33,000  Level Chicago Center
07:12PM 40.6803 -84.5989 108° East 435 501 33,000  Level Indianapolis Center
07:13PM 40.6422 -84.4469 108° East 437 503 33,000  Level Indianapolis Center
07:14PM 40.6028 -84.2950 109° East 437 503 33,000  Level Indianapolis Center
07:16PM 40.5647 -84.1439 108° East 435 501 33,000  Level Indianapolis Center
07:17PM 40.5253 -83.9925 109° East 436 502 33,000  Level Indianapolis Center
07:18PM 40.4867 -83.8425 109° East 433 498 33,000  Level Indianapolis Center
07:19PM 40.4469 -83.6925 109° East 434 499 33,000  Level Indianapolis Center
07:20PM 40.4000 -83.5125 109° East 433 498 33,000  Level Indianapolis Center
07:21PM 40.3608 -83.3628 109° East 431 496 33,000  Level Indianapolis Center
07:22PM 40.3208 -83.2119 109° East 434 499 33,000  Level Indianapolis Center
07:23PM 40.2800 -83.0628 110° East 433 498 33,000  Level Indianapolis Center
07:24PM 40.2397 -82.9131 109° East 433 498 33,000  Level Indianapolis Center
07:25PM 40.2000 -82.7658 109° East 430 495 33,000  Level Indianapolis Center
07:26PM 40.1600 -82.6189 110° East 428 493 33,000  Level Indianapolis Center
07:27PM 40.1175 -82.4728 111° Southeast 429 494 33,000  Level Indianapolis Center
07:28PM 40.0656 -82.2981 111° Southeast 429 494 33,000  Level Indianapolis Center
07:29PM 40.0217 -82.1525 111° Southeast 431 496 33,000  Level Indianapolis Center
07:30PM 39.9783 -82.0086 111° Southeast 428 493 33,000  Level Indianapolis Center
07:31PM 39.9358 -81.8644 111° Southeast 426 490 33,000  Level Indianapolis Center
07:32PM 39.8917 -81.7236 112° Southeast 421 484 33,000  Level Indianapolis Center
07:33PM 39.8489 -81.5806 111° Southeast 422 486 33,000  Level Indianapolis Center
07:34PM 39.7992 -81.4178 112° Southeast 420 483 33,000  Level Indianapolis Center
07:35PM 39.7550 -81.2767 112° Southeast 420 483 33,000  Level Indianapolis Center
07:36PM 39.7122 -81.1369 112° Southeast 415 478 33,000 -360 Level Indianapolis Center
07:37PM 39.6678 -80.9967 112° Southeast 418 481 32,300 -780 Descending Indianapolis Center
07:38PM 39.6250 -80.8578 112° Southeast 415 478 31,400 -660 Descending Indianapolis Center
07:39PM 39.5806 -80.7181 112° Southeast 416 479 31,000 -240 Descending Indianapolis Center
07:40PM 39.5381 -80.5750 111° Southeast 422 486 31,000  Level Indianapolis Center
07:41PM 39.5067 -80.4283 105° East 422 486 31,000  Level Indianapolis Center
07:42PM 39.4767 -80.2828 105° East 418 481 31,000  Level Indianapolis Center
07:43PM 39.4378 -80.1069 106° East 423 487 31,000  Level Indianapolis Center
07:45PM 39.4006 -79.9158 104° East 414 476 31,000  Level Washington Center
07:46PM 39.3683 -79.7689 106° East 414 476 31,000  Level Washington Center
07:47PM 39.3356 -79.6247 106° East 414 476 31,000  Level Washington Center
07:48PM 39.3050 -79.4836 106° East 414 476 31,000 -900 Level Washington Center
07:49PM 39.2722 -79.3344 106° East 419 482 29,200 -1,980 Descending Washington Center
07:50PM 39.2411 -79.1881 105° East 419 482 27,200 -2,040 Descending Washington Center
07:51PM 39.2292 -79.0294 96° East 427 491 25,200 -1,980 Descending Washington Center
07:52PM 39.2144 -78.8786 97° East 432 497 23,300 -1,740 Descending Washington Center
07:53PM 39.2033 -78.7575 97° East 427 491 21,800 -1,740 Descending Washington Center
07:54PM 39.1864 -78.5961 98° East 422 486 19,800 -1,980 Descending Washington Center
07:55PM 39.1733 -78.4564 97° East 411 473 18,000 -1,440 Descending Washington Center
07:56PM 39.1533 -78.3217 101° East 391 450 17,000 -600 Descending Washington Center
07:57PM 39.1208 -78.1947 108° East 377 434 16,900 -900 Descending Washington Center
07:58PM 39.0881 -78.0653 108° East 377 434 15,200 -1,680 Descending Washington Center
07:59PM 39.0553 -77.9386 108° East 377 434 13,600 -1,620 Descending Washington Center
08:00PM 39.0261 -77.8228 108° East 351 404 12,000 -1,620 Descending Washington Center
08:01PM 38.9950 -77.7069 109° East 325 374 10,500 -1,440 Descending Washington Center
08:02PM 38.9714 -77.6128 108° East 309 356 9,100 -1,260 Descending Washington Center
08:03PM 38.9439 -77.5106 109° East 295 339 8,000 -1,200 Descending Washington Center
08:04PM 38.9667 -77.4333 69° East 225 259 6,700 -1,440 Descending Potomac TRACON
08:05PM 39.0000 -77.3667 57° Northeast 213 245 5,200 -900 Descending Potomac TRACON
08:06PM 39.0000 -77.2833 90° East 217 250 5,000 -480 Descending Potomac TRACON
08:07PM 39.0000 -77.2167 90° East 199 229 4,300 -900 Descending Potomac TRACON
08:08PM 38.9667 -77.1667 131° Southeast 171 197 3,300 -1,020 Descending Potomac TRACON
08:09PM 38.9333 -77.1333 142° Southeast 142 163 2,300 -960 Descending Potomac TRACON
08:10PM 38.9167 -77.1000 123° Southeast 132 152 1,500 -780 Descending Potomac TRACON
08:11PM 38.9000 -77.0667 123° Southeast 140 161 800 -660 Descending Potomac TRACON